sensor_id;sensor_type;location;lat;lon;timestamp;temperature;humidity
36458;DHT22;22480;50.546;12.292;2024-02-15T00:01:04;7.90;99.90
36458;DHT22;22480;50.546;12.292;2024-02-15T00:03:30;7.90;99.90
36458;DHT22;22480;50.546;12.292;2024-02-15T00:06:01;7.90;99.90
36458;DHT22;22480;50.546;12.292;2024-02-15T00:08:26;7.90;99.90
36458;DHT22;22480;50.546;12.292;2024-02-15T00:10:52;8.00;99.90
36458;DHT22;22480;50.546;12.292;2024-02-15T00:13:19;8.00;99.90
36458;DHT22;22480;50.546;12.292;2024-02-15T00:15:45;8.00;99.90
36458;DHT22;22480;50.546;12.292;2024-02-15T00:18:14;8.00;99.90
36458;DHT22;22480;50.546;12.292;2024-02-15T00:20:40;8.00;99.90
36458;DHT22;22480;50.546;12.292;2024-02-15T00:23:05;8.00;99.90
36458;DHT22;22480;50.546;12.292;2024-02-15T00:25:32;8.00;99.90
36458;DHT22;22480;50.546;12.292;2024-02-15T00:27:58;8.00;99.90
36458;DHT22;22480;50.546;12.292;2024-02-15T00:30:26;8.00;99.90
36458;DHT22;22480;50.546;12.292;2024-02-15T00:32:53;8.00;99.90
36458;DHT22;22480;50.546;12.292;2024-02-15T00:35:18;8.00;99.90
36458;DHT22;22480;50.546;12.292;2024-02-15T00:37:44;8.00;99.90
36458;DHT22;22480;50.546;12.292;2024-02-15T00:40:10;8.00;99.90
36458;DHT22;22480;50.546;12.292;2024-02-15T00:42:36;8.00;99.90
36458;DHT22;22480;50.546;12.292;2024-02-15T00:45:03;8.00;99.90
36458;DHT22;22480;50.546;12.292;2024-02-15T00:47:30;8.00;99.90
36458;DHT22;22480;50.546;12.292;2024-02-15T00:49:56;8.00;99.90
36458;DHT22;22480;50.546;12.292;2024-02-15T00:52:22;8.00;99.90
36458;DHT22;22480;50.546;12.292;2024-02-15T00:54:49;8.10;99.90
36458;DHT22;22480;50.546;12.292;2024-02-15T00:57:14;8.00;99.90
36458;DHT22;22480;50.546;12.292;2024-02-15T00:59:40;8.00;99.90
36458;DHT22;22480;50.546;12.292;2024-02-15T01:02:06;8.00;99.90
36458;DHT22;22480;50.546;12.292;2024-02-15T01:04:31;8.10;99.90
36458;DHT22;22480;50.546;12.292;2024-02-15T01:06:57;8.00;99.90
36458;DHT22;22480;50.546;12.292;2024-02-15T01:09:23;8.00;99.90
36458;DHT22;22480;50.546;12.292;2024-02-15T01:11:49;8.00;99.90
36458;DHT22;22480;50.546;12.292;2024-02-15T01:14:15;8.00;99.90
36458;DHT22;22480;50.546;12.292;2024-02-15T01:16:41;8.00;99.90
36458;DHT22;22480;50.546;12.292;2024-02-15T01:19:07;8.00;99.90
36458;DHT22;22480;50.546;12.292;2024-02-15T01:21:33;8.00;99.90
36458;DHT22;22480;50.546;12.292;2024-02-15T01:23:59;8.00;99.90
36458;DHT22;22480;50.546;12.292;2024-02-15T01:26:26;8.00;99.90
36458;DHT22;22480;50.546;12.292;2024-02-15T01:28:52;8.10;99.90
36458;DHT22;22480;50.546;12.292;2024-02-15T01:31:18;8.10;99.90
36458;DHT22;22480;50.546;12.292;2024-02-15T01:33:44;8.10;99.90
36458;DHT22;22480;50.546;12.292;2024-02-15T01:36:16;8.10;99.90
36458;DHT22;22480;50.546;12.292;2024-02-15T01:38:43;8.10;99.90
36458;DHT22;22480;50.546;12.292;2024-02-15T01:41:09;8.10;99.90
36458;DHT22;22480;50.546;12.292;2024-02-15T01:43:37;8.10;99.90
36458;DHT22;22480;50.546;12.292;2024-02-15T01:46:09;8.10;99.90
36458;DHT22;22480;50.546;12.292;2024-02-15T01:48:40;8.10;99.90
36458;DHT22;22480;50.546;12.292;2024-02-15T01:51:11;8.10;99.90
36458;DHT22;22480;50.546;12.292;2024-02-15T01:53:38;8.10;99.90
36458;DHT22;22480;50.546;12.292;2024-02-15T01:56:06;8.10;99.90
36458;DHT22;22480;50.546;12.292;2024-02-15T01:58:32;8.10;99.90
36458;DHT22;22480;50.546;12.292;2024-02-15T02:01:00;8.10;99.90
36458;DHT22;22480;50.546;12.292;2024-02-15T02:03:27;8.10;99.90
36458;DHT22;22480;50.546;12.292;2024-02-15T02:05:53;8.10;99.90
36458;DHT22;22480;50.546;12.292;2024-02-15T02:08:18;8.10;99.90
36458;DHT22;22480;50.546;12.292;2024-02-15T02:10:44;8.10;99.90
36458;DHT22;22480;50.546;12.292;2024-02-15T02:13:11;8.10;99.90
36458;DHT22;22480;50.546;12.292;2024-02-15T02:15:37;8.10;99.90
36458;DHT22;22480;50.546;12.292;2024-02-15T02:18:03;8.10;99.90
36458;DHT22;22480;50.546;12.292;2024-02-15T02:20:31;8.10;99.90
36458;DHT22;22480;50.546;12.292;2024-02-15T02:23:25;8.10;99.90
36458;DHT22;22480;50.546;12.292;2024-02-15T02:25:52;8.10;99.90
36458;DHT22;22480;50.546;12.292;2024-02-15T02:28:19;8.10;99.90
36458;DHT22;22480;50.546;12.292;2024-02-15T02:30:47;8.20;99.90
36458;DHT22;22480;50.546;12.292;2024-02-15T02:33:13;8.20;99.90
36458;DHT22;22480;50.546;12.292;2024-02-15T02:35:47;8.10;99.90
36458;DHT22;22480;50.546;12.292;2024-02-15T02:38:13;8.20;99.90
36458;DHT22;22480;50.546;12.292;2024-02-15T02:40:40;8.20;99.90
36458;DHT22;22480;50.546;12.292;2024-02-15T02:43:06;8.20;99.90
36458;DHT22;22480;50.546;12.292;2024-02-15T02:45:32;8.20;99.90
36458;DHT22;22480;50.546;12.292;2024-02-15T02:47:58;8.20;99.90
36458;DHT22;22480;50.546;12.292;2024-02-15T02:50:24;8.20;99.90
36458;DHT22;22480;50.546;12.292;2024-02-15T02:52:50;8.20;99.90
36458;DHT22;22480;50.546;12.292;2024-02-15T02:55:16;8.20;99.90
36458;DHT22;22480;50.546;12.292;2024-02-15T02:57:42;8.20;99.90
36458;DHT22;22480;50.546;12.292;2024-02-15T03:00:11;8.20;99.90
36458;DHT22;22480;50.546;12.292;2024-02-15T03:02:46;8.20;99.90
36458;DHT22;22480;50.546;12.292;2024-02-15T03:05:12;8.20;99.90
36458;DHT22;22480;50.546;12.292;2024-02-15T03:07:39;8.30;99.90
36458;DHT22;22480;50.546;12.292;2024-02-15T03:10:08;8.20;99.90
36458;DHT22;22480;50.546;12.292;2024-02-15T03:12:36;8.20;99.90
36458;DHT22;22480;50.546;12.292;2024-02-15T03:15:05;8.20;99.90
36458;DHT22;22480;50.546;12.292;2024-02-15T03:17:37;8.30;99.90
36458;DHT22;22480;50.546;12.292;2024-02-15T03:20:06;8.30;99.90
36458;DHT22;22480;50.546;12.292;2024-02-15T03:22:37;8.30;99.90
36458;DHT22;22480;50.546;12.292;2024-02-15T03:25:06;8.30;99.90
36458;DHT22;22480;50.546;12.292;2024-02-15T03:27:36;8.30;99.90
36458;DHT22;22480;50.546;12.292;2024-02-15T03:30:03;8.30;99.90
36458;DHT22;22480;50.546;12.292;2024-02-15T03:32:30;8.30;99.90
36458;DHT22;22480;50.546;12.292;2024-02-15T03:34:55;8.30;99.90
36458;DHT22;22480;50.546;12.292;2024-02-15T03:37:21;8.30;99.90
36458;DHT22;22480;50.546;12.292;2024-02-15T03:39:47;8.30;99.90
36458;DHT22;22480;50.546;12.292;2024-02-15T03:42:12;8.20;99.90
36458;DHT22;22480;50.546;12.292;2024-02-15T03:44:38;8.30;99.90
36458;DHT22;22480;50.546;12.292;2024-02-15T03:47:07;8.30;99.90
36458;DHT22;22480;50.546;12.292;2024-02-15T03:49:32;8.30;99.90
36458;DHT22;22480;50.546;12.292;2024-02-15T03:51:58;8.30;99.90
36458;DHT22;22480;50.546;12.292;2024-02-15T03:54:25;8.30;99.90
36458;DHT22;22480;50.546;12.292;2024-02-15T03:56:51;8.30;99.90
36458;DHT22;22480;50.546;12.292;2024-02-15T03:59:19;8.30;99.90
36458;DHT22;22480;50.546;12.292;2024-02-15T04:01:52;8.30;99.90
36458;DHT22;22480;50.546;12.292;2024-02-15T04:04:18;8.30;99.90
36458;DHT22;22480;50.546;12.292;2024-02-15T04:06:49;8.30;99.90
36458;DHT22;22480;50.546;12.292;2024-02-15T04:09:15;8.30;99.90
36458;DHT22;22480;50.546;12.292;2024-02-15T04:11:46;8.30;99.90
36458;DHT22;22480;50.546;12.292;2024-02-15T04:14:16;8.30;99.90
36458;DHT22;22480;50.546;12.292;2024-02-15T04:16:43;8.40;99.90
36458;DHT22;22480;50.546;12.292;2024-02-15T04:19:10;8.40;99.90
36458;DHT22;22480;50.546;12.292;2024-02-15T04:21:36;8.40;99.90
36458;DHT22;22480;50.546;12.292;2024-02-15T04:24:02;8.40;99.90
36458;DHT22;22480;50.546;12.292;2024-02-15T04:26:27;8.40;99.90
36458;DHT22;22480;50.546;12.292;2024-02-15T04:28:56;8.40;99.90
36458;DHT22;22480;50.546;12.292;2024-02-15T04:31:22;8.40;99.90
36458;DHT22;22480;50.546;12.292;2024-02-15T04:33:55;8.40;99.90
36458;DHT22;22480;50.546;12.292;2024-02-15T04:36:22;8.40;99.90
36458;DHT22;22480;50.546;12.292;2024-02-15T04:38:52;8.40;99.90
36458;DHT22;22480;50.546;12.292;2024-02-15T04:41:18;8.40;99.90
36458;DHT22;22480;50.546;12.292;2024-02-15T04:43:51;8.40;99.90
36458;DHT22;22480;50.546;12.292;2024-02-15T04:46:20;8.40;99.90
36458;DHT22;22480;50.546;12.292;2024-02-15T04:48:47;8.50;99.90
36458;DHT22;22480;50.546;12.292;2024-02-15T04:51:15;8.40;99.90
36458;DHT22;22480;50.546;12.292;2024-02-15T04:53:45;8.40;99.90
36458;DHT22;22480;50.546;12.292;2024-02-15T04:56:12;8.50;99.90
36458;DHT22;22480;50.546;12.292;2024-02-15T04:58:42;8.50;99.90
36458;DHT22;22480;50.546;12.292;2024-02-15T05:01:14;8.40;99.90
36458;DHT22;22480;50.546;12.292;2024-02-15T05:03:41;8.50;99.90
36458;DHT22;22480;50.546;12.292;2024-02-15T05:06:07;8.40;99.90
36458;DHT22;22480;50.546;12.292;2024-02-15T05:08:34;8.50;99.90
36458;DHT22;22480;50.546;12.292;2024-02-15T05:11:02;8.50;99.90
36458;DHT22;22480;50.546;12.292;2024-02-15T05:13:30;8.50;99.90
36458;DHT22;22480;50.546;12.292;2024-02-15T05:15:55;8.50;99.90
36458;DHT22;22480;50.546;12.292;2024-02-15T05:18:21;8.60;99.90
36458;DHT22;22480;50.546;12.292;2024-02-15T05:20:47;8.50;99.90
36458;DHT22;22480;50.546;12.292;2024-02-15T05:23:12;8.50;99.90
36458;DHT22;22480;50.546;12.292;2024-02-15T05:25:38;8.50;99.90
36458;DHT22;22480;50.546;12.292;2024-02-15T05:28:04;8.60;99.90
36458;DHT22;22480;50.546;12.292;2024-02-15T05:30:32;8.50;99.90
36458;DHT22;22480;50.546;12.292;2024-02-15T05:32:58;8.50;99.90
36458;DHT22;22480;50.546;12.292;2024-02-15T05:35:24;8.60;99.90
36458;DHT22;22480;50.546;12.292;2024-02-15T05:37:50;8.50;99.90
36458;DHT22;22480;50.546;12.292;2024-02-15T05:40:18;8.50;99.90
36458;DHT22;22480;50.546;12.292;2024-02-15T05:42:45;8.60;99.90
36458;DHT22;22480;50.546;12.292;2024-02-15T05:47:51;8.50;99.90
36458;DHT22;22480;50.546;12.292;2024-02-15T05:50:17;8.50;99.90
36458;DHT22;22480;50.546;12.292;2024-02-15T05:52:48;8.60;99.90
36458;DHT22;22480;50.546;12.292;2024-02-15T05:55:14;8.60;99.90
36458;DHT22;22480;50.546;12.292;2024-02-15T05:57:43;8.50;99.90
36458;DHT22;22480;50.546;12.292;2024-02-15T06:00:10;8.60;99.90
36458;DHT22;22480;50.546;12.292;2024-02-15T06:02:36;8.60;99.90
36458;DHT22;22480;50.546;12.292;2024-02-15T06:05:01;8.50;99.90
36458;DHT22;22480;50.546;12.292;2024-02-15T06:07:32;8.60;99.90
36458;DHT22;22480;50.546;12.292;2024-02-15T06:09:58;8.60;99.90
36458;DHT22;22480;50.546;12.292;2024-02-15T06:12:31;8.60;99.90
36458;DHT22;22480;50.546;12.292;2024-02-15T06:14:57;8.60;99.90
36458;DHT22;22480;50.546;12.292;2024-02-15T06:17:23;8.60;99.90
36458;DHT22;22480;50.546;12.292;2024-02-15T06:19:49;8.60;99.90
36458;DHT22;22480;50.546;12.292;2024-02-15T06:22:15;8.60;99.90
36458;DHT22;22480;50.546;12.292;2024-02-15T06:24:41;8.60;99.90
36458;DHT22;22480;50.546;12.292;2024-02-15T06:27:07;8.60;99.90
36458;DHT22;22480;50.546;12.292;2024-02-15T06:29:33;8.60;99.90
36458;DHT22;22480;50.546;12.292;2024-02-15T06:32:17;8.60;99.90
36458;DHT22;22480;50.546;12.292;2024-02-15T06:35:01;8.60;99.90
36458;DHT22;22480;50.546;12.292;2024-02-15T06:37:45;8.60;99.90
36458;DHT22;22480;50.546;12.292;2024-02-15T06:40:30;8.60;99.90
36458;DHT22;22480;50.546;12.292;2024-02-15T06:42:56;8.60;99.90
36458;DHT22;22480;50.546;12.292;2024-02-15T06:45:22;8.70;99.90
36458;DHT22;22480;50.546;12.292;2024-02-15T06:47:48;8.70;99.90
36458;DHT22;22480;50.546;12.292;2024-02-15T06:50:14;8.70;99.90
36458;DHT22;22480;50.546;12.292;2024-02-15T06:52:43;8.70;99.90
36458;DHT22;22480;50.546;12.292;2024-02-15T06:55:09;8.70;99.90
36458;DHT22;22480;50.546;12.292;2024-02-15T06:57:40;8.80;99.90
36458;DHT22;22480;50.546;12.292;2024-02-15T07:00:07;8.80;99.90
36458;DHT22;22480;50.546;12.292;2024-02-15T07:02:35;8.80;99.90
36458;DHT22;22480;50.546;12.292;2024-02-15T07:05:01;8.90;99.90
36458;DHT22;22480;50.546;12.292;2024-02-15T07:07:28;8.90;99.90
36458;DHT22;22480;50.546;12.292;2024-02-15T07:09:54;9.00;99.90
36458;DHT22;22480;50.546;12.292;2024-02-15T07:12:20;9.10;99.90
36458;DHT22;22480;50.546;12.292;2024-02-15T07:14:47;9.00;99.90
36458;DHT22;22480;50.546;12.292;2024-02-15T07:17:13;9.00;99.90
36458;DHT22;22480;50.546;12.292;2024-02-15T07:19:44;9.00;99.90
36458;DHT22;22480;50.546;12.292;2024-02-15T07:22:11;9.00;99.90
36458;DHT22;22480;50.546;12.292;2024-02-15T07:24:37;8.90;99.90
36458;DHT22;22480;50.546;12.292;2024-02-15T07:27:06;9.00;99.90
36458;DHT22;22480;50.546;12.292;2024-02-15T07:29:32;9.00;99.90
36458;DHT22;22480;50.546;12.292;2024-02-15T07:32:01;9.10;99.90
36458;DHT22;22480;50.546;12.292;2024-02-15T07:34:30;9.20;99.90
36458;DHT22;22480;50.546;12.292;2024-02-15T07:36:56;9.30;99.90
36458;DHT22;22480;50.546;12.292;2024-02-15T07:39:24;9.30;99.90
36458;DHT22;22480;50.546;12.292;2024-02-15T07:41:56;9.30;99.90
36458;DHT22;22480;50.546;12.292;2024-02-15T07:44:24;9.20;99.90
36458;DHT22;22480;50.546;12.292;2024-02-15T07:46:50;9.20;99.90
36458;DHT22;22480;50.546;12.292;2024-02-15T07:49:16;9.10;99.90
36458;DHT22;22480;50.546;12.292;2024-02-15T07:51:43;9.20;99.90
36458;DHT22;22480;50.546;12.292;2024-02-15T07:54:09;9.20;99.90
36458;DHT22;22480;50.546;12.292;2024-02-15T07:56:36;9.30;99.90
36458;DHT22;22480;50.546;12.292;2024-02-15T07:59:02;9.30;99.90
36458;DHT22;22480;50.546;12.292;2024-02-15T08:01:28;9.30;99.90
36458;DHT22;22480;50.546;12.292;2024-02-15T08:03:56;9.30;99.90
36458;DHT22;22480;50.546;12.292;2024-02-15T08:06:22;9.40;99.90
36458;DHT22;22480;50.546;12.292;2024-02-15T08:08:53;9.40;99.90
36458;DHT22;22480;50.546;12.292;2024-02-15T08:11:19;9.40;99.90
36458;DHT22;22480;50.546;12.292;2024-02-15T08:13:45;9.50;99.90
36458;DHT22;22480;50.546;12.292;2024-02-15T08:16:13;9.60;99.90
36458;DHT22;22480;50.546;12.292;2024-02-15T08:18:45;9.60;99.90
36458;DHT22;22480;50.546;12.292;2024-02-15T08:21:12;9.60;99.90
36458;DHT22;22480;50.546;12.292;2024-02-15T08:23:37;9.50;99.90
36458;DHT22;22480;50.546;12.292;2024-02-15T08:26:04;9.40;99.90
36458;DHT22;22480;50.546;12.292;2024-02-15T08:28:30;9.40;99.90
36458;DHT22;22480;50.546;12.292;2024-02-15T08:30:55;9.40;99.90
36458;DHT22;22480;50.546;12.292;2024-02-15T08:33:23;9.50;99.90
36458;DHT22;22480;50.546;12.292;2024-02-15T08:35:49;9.60;99.90
36458;DHT22;22480;50.546;12.292;2024-02-15T08:38:15;9.80;99.90
36458;DHT22;22480;50.546;12.292;2024-02-15T08:40:40;9.90;99.90
36458;DHT22;22480;50.546;12.292;2024-02-15T08:43:06;10.00;99.90
36458;DHT22;22480;50.546;12.292;2024-02-15T08:45:32;10.00;99.90
36458;DHT22;22480;50.546;12.292;2024-02-15T08:47:57;10.10;99.90
36458;DHT22;22480;50.546;12.292;2024-02-15T08:50:23;10.20;99.90
36458;DHT22;22480;50.546;12.292;2024-02-15T08:52:49;10.40;99.90
36458;DHT22;22480;50.546;12.292;2024-02-15T08:55:15;10.30;99.90
36458;DHT22;22480;50.546;12.292;2024-02-15T08:57:42;10.30;99.90
36458;DHT22;22480;50.546;12.292;2024-02-15T09:00:10;10.20;99.90
36458;DHT22;22480;50.546;12.292;2024-02-15T09:05:10;10.50;99.90
36458;DHT22;22480;50.546;12.292;2024-02-15T09:07:40;10.50;99.90
36458;DHT22;22480;50.546;12.292;2024-02-15T09:10:07;10.60;99.90
36458;DHT22;22480;50.546;12.292;2024-02-15T09:12:35;10.80;99.90
36458;DHT22;22480;50.546;12.292;2024-02-15T09:15:03;10.80;99.90
36458;DHT22;22480;50.546;12.292;2024-02-15T09:17:29;11.00;99.90
36458;DHT22;22480;50.546;12.292;2024-02-15T09:19:58;10.90;99.90
36458;DHT22;22480;50.546;12.292;2024-02-15T09:22:24;10.90;99.90
36458;DHT22;22480;50.546;12.292;2024-02-15T09:24:49;11.00;99.90
36458;DHT22;22480;50.546;12.292;2024-02-15T09:27:15;11.00;99.90
36458;DHT22;22480;50.546;12.292;2024-02-15T09:29:41;10.90;99.90
36458;DHT22;22480;50.546;12.292;2024-02-15T09:32:07;10.90;99.90
36458;DHT22;22480;50.546;12.292;2024-02-15T09:34:33;10.90;99.90
36458;DHT22;22480;50.546;12.292;2024-02-15T09:36:59;10.90;99.90
36458;DHT22;22480;50.546;12.292;2024-02-15T09:39:25;10.90;99.90
36458;DHT22;22480;50.546;12.292;2024-02-15T09:41:50;11.00;99.90
36458;DHT22;22480;50.546;12.292;2024-02-15T09:44:24;10.90;99.90
36458;DHT22;22480;50.546;12.292;2024-02-15T09:47:04;10.90;99.90
36458;DHT22;22480;50.546;12.292;2024-02-15T09:49:35;10.80;99.90
36458;DHT22;22480;50.546;12.292;2024-02-15T09:52:03;10.80;99.90
36458;DHT22;22480;50.546;12.292;2024-02-15T09:54:30;10.80;99.90
36458;DHT22;22480;50.546;12.292;2024-02-15T09:56:56;10.80;99.90
36458;DHT22;22480;50.546;12.292;2024-02-15T09:59:23;10.90;99.90
36458;DHT22;22480;50.546;12.292;2024-02-15T10:01:49;11.00;99.90
36458;DHT22;22480;50.546;12.292;2024-02-15T10:04:16;11.00;99.90
36458;DHT22;22480;50.546;12.292;2024-02-15T10:06:42;11.00;99.90
36458;DHT22;22480;50.546;12.292;2024-02-15T10:09:27;11.00;99.90
36458;DHT22;22480;50.546;12.292;2024-02-15T10:11:55;11.20;99.90
36458;DHT22;22480;50.546;12.292;2024-02-15T10:14:22;11.20;99.90
36458;DHT22;22480;50.546;12.292;2024-02-15T10:16:47;11.10;99.90
36458;DHT22;22480;50.546;12.292;2024-02-15T10:19:13;11.10;99.90
36458;DHT22;22480;50.546;12.292;2024-02-15T10:21:40;11.10;99.90
36458;DHT22;22480;50.546;12.292;2024-02-15T10:24:07;11.10;99.90
36458;DHT22;22480;50.546;12.292;2024-02-15T10:26:34;11.10;99.90
36458;DHT22;22480;50.546;12.292;2024-02-15T10:29:10;11.20;99.90
36458;DHT22;22480;50.546;12.292;2024-02-15T10:31:37;11.30;99.90
36458;DHT22;22480;50.546;12.292;2024-02-15T10:34:05;11.30;99.90
36458;DHT22;22480;50.546;12.292;2024-02-15T10:36:31;11.50;99.90
36458;DHT22;22480;50.546;12.292;2024-02-15T10:39:16;11.50;99.90
36458;DHT22;22480;50.546;12.292;2024-02-15T10:41:54;11.60;99.90
36458;DHT22;22480;50.546;12.292;2024-02-15T10:44:21;11.70;99.90
36458;DHT22;22480;50.546;12.292;2024-02-15T10:46:51;11.70;99.90
36458;DHT22;22480;50.546;12.292;2024-02-15T10:49:24;11.70;99.90
36458;DHT22;22480;50.546;12.292;2024-02-15T10:51:58;11.80;99.90
36458;DHT22;22480;50.546;12.292;2024-02-15T10:54:41;11.70;99.90
36458;DHT22;22480;50.546;12.292;2024-02-15T10:57:10;11.90;99.90
36458;DHT22;22480;50.546;12.292;2024-02-15T10:59:38;12.10;99.90
36458;DHT22;22480;50.546;12.292;2024-02-15T11:02:27;11.90;99.90
36458;DHT22;22480;50.546;12.292;2024-02-15T11:04:58;11.80;99.90
36458;DHT22;22480;50.546;12.292;2024-02-15T11:07:25;11.70;99.90
36458;DHT22;22480;50.546;12.292;2024-02-15T11:09:55;11.60;99.90
36458;DHT22;22480;50.546;12.292;2024-02-15T11:12:24;11.80;99.90
36458;DHT22;22480;50.546;12.292;2024-02-15T11:14:52;11.90;99.90
36458;DHT22;22480;50.546;12.292;2024-02-15T11:20:08;11.90;99.90
36458;DHT22;22480;50.546;12.292;2024-02-15T11:22:38;12.10;99.90
36458;DHT22;22480;50.546;12.292;2024-02-15T11:25:05;12.10;99.90
36458;DHT22;22480;50.546;12.292;2024-02-15T11:27:37;12.10;99.90
36458;DHT22;22480;50.546;12.292;2024-02-15T11:30:05;11.90;99.90
36458;DHT22;22480;50.546;12.292;2024-02-15T11:32:46;11.90;99.90
36458;DHT22;22480;50.546;12.292;2024-02-15T11:35:17;12.00;99.90
36458;DHT22;22480;50.546;12.292;2024-02-15T11:42:43;12.60;99.90
36458;DHT22;22480;50.546;12.292;2024-02-15T11:45:09;12.70;99.90
36458;DHT22;22480;50.546;12.292;2024-02-15T11:47:40;12.70;99.90
36458;DHT22;22480;50.546;12.292;2024-02-15T11:50:09;12.80;99.90
36458;DHT22;22480;50.546;12.292;2024-02-15T11:52:50;12.90;99.90
36458;DHT22;22480;50.546;12.292;2024-02-15T11:55:21;12.90;99.90
36458;DHT22;22480;50.546;12.292;2024-02-15T11:58:00;12.70;99.90
36458;DHT22;22480;50.546;12.292;2024-02-15T12:00:33;12.70;99.90
36458;DHT22;22480;50.546;12.292;2024-02-15T12:03:17;12.60;99.90
36458;DHT22;22480;50.546;12.292;2024-02-15T12:06:03;12.40;99.90
36458;DHT22;22480;50.546;12.292;2024-02-15T12:08:48;12.40;99.90
36458;DHT22;22480;50.546;12.292;2024-02-15T12:11:33;12.50;99.90
36458;DHT22;22480;50.546;12.292;2024-02-15T12:14:17;12.50;99.90
36458;DHT22;22480;50.546;12.292;2024-02-15T12:17:10;12.50;99.90
36458;DHT22;22480;50.546;12.292;2024-02-15T12:19:56;12.60;99.90
36458;DHT22;22480;50.546;12.292;2024-02-15T12:22:28;12.70;99.90
36458;DHT22;22480;50.546;12.292;2024-02-15T12:24:59;12.70;99.90
36458;DHT22;22480;50.546;12.292;2024-02-15T12:27:25;12.90;99.90
36458;DHT22;22480;50.546;12.292;2024-02-15T12:29:59;12.80;99.90
36458;DHT22;22480;50.546;12.292;2024-02-15T12:32:26;13.00;99.90
36458;DHT22;22480;50.546;12.292;2024-02-15T12:34:53;13.10;99.90
36458;DHT22;22480;50.546;12.292;2024-02-15T12:37:20;13.20;99.90
36458;DHT22;22480;50.546;12.292;2024-02-15T12:39:47;13.30;99.90
36458;DHT22;22480;50.546;12.292;2024-02-15T12:42:13;13.40;99.90
36458;DHT22;22480;50.546;12.292;2024-02-15T12:44:46;13.40;99.90
36458;DHT22;22480;50.546;12.292;2024-02-15T12:47:22;13.70;99.90
36458;DHT22;22480;50.546;12.292;2024-02-15T12:49:48;13.90;99.90
36458;DHT22;22480;50.546;12.292;2024-02-15T12:52:37;14.20;99.90
36458;DHT22;22480;50.546;12.292;2024-02-15T12:55:16;14.30;99.90
36458;DHT22;22480;50.546;12.292;2024-02-15T12:57:44;14.50;99.90
36458;DHT22;22480;50.546;12.292;2024-02-15T13:00:12;14.60;99.90
36458;DHT22;22480;50.546;12.292;2024-02-15T13:02:45;14.60;99.90
36458;DHT22;22480;50.546;12.292;2024-02-15T13:05:11;14.70;99.90
36458;DHT22;22480;50.546;12.292;2024-02-15T13:07:37;14.50;99.90
36458;DHT22;22480;50.546;12.292;2024-02-15T13:10:04;14.20;99.90
36458;DHT22;22480;50.546;12.292;2024-02-15T13:12:34;14.20;99.90
36458;DHT22;22480;50.546;12.292;2024-02-15T13:15:02;14.10;99.90
36458;DHT22;22480;50.546;12.292;2024-02-15T13:17:29;13.70;99.90
36458;DHT22;22480;50.546;12.292;2024-02-15T13:19:55;13.60;99.90
36458;DHT22;22480;50.546;12.292;2024-02-15T13:22:28;13.60;99.90
36458;DHT22;22480;50.546;12.292;2024-02-15T13:24:54;13.60;99.90
36458;DHT22;22480;50.546;12.292;2024-02-15T13:27:23;13.40;99.90
36458;DHT22;22480;50.546;12.292;2024-02-15T13:29:50;13.50;99.90
36458;DHT22;22480;50.546;12.292;2024-02-15T13:32:16;13.80;99.90
36458;DHT22;22480;50.546;12.292;2024-02-15T13:34:42;14.10;99.90
36458;DHT22;22480;50.546;12.292;2024-02-15T13:37:11;14.50;99.90
36458;DHT22;22480;50.546;12.292;2024-02-15T13:39:39;14.80;99.90
36458;DHT22;22480;50.546;12.292;2024-02-15T13:42:08;15.00;99.90
36458;DHT22;22480;50.546;12.292;2024-02-15T13:44:34;15.20;99.90
36458;DHT22;22480;50.546;12.292;2024-02-15T13:47:00;15.40;99.90
36458;DHT22;22480;50.546;12.292;2024-02-15T13:49:25;15.50;99.90
36458;DHT22;22480;50.546;12.292;2024-02-15T13:51:52;15.30;99.90
36458;DHT22;22480;50.546;12.292;2024-02-15T13:54:18;15.30;99.90
36458;DHT22;22480;50.546;12.292;2024-02-15T13:56:44;15.10;99.90
36458;DHT22;22480;50.546;12.292;2024-02-15T13:59:09;14.80;99.90
36458;DHT22;22480;50.546;12.292;2024-02-15T14:01:35;14.50;99.90
36458;DHT22;22480;50.546;12.292;2024-02-15T14:04:08;14.50;99.90
36458;DHT22;22480;50.546;12.292;2024-02-15T14:06:35;14.20;99.90
36458;DHT22;22480;50.546;12.292;2024-02-15T14:09:03;14.00;99.90
36458;DHT22;22480;50.546;12.292;2024-02-15T14:11:29;14.10;99.90
36458;DHT22;22480;50.546;12.292;2024-02-15T14:13:54;14.00;99.90
36458;DHT22;22480;50.546;12.292;2024-02-15T14:16:24;14.10;99.90
36458;DHT22;22480;50.546;12.292;2024-02-15T14:18:50;14.10;99.90
36458;DHT22;22480;50.546;12.292;2024-02-15T14:21:17;14.00;99.90
36458;DHT22;22480;50.546;12.292;2024-02-15T14:23:44;13.60;99.90
36458;DHT22;22480;50.546;12.292;2024-02-15T14:26:10;13.60;99.90
36458;DHT22;22480;50.546;12.292;2024-02-15T14:28:35;13.60;99.90
36458;DHT22;22480;50.546;12.292;2024-02-15T14:31:01;13.50;99.90
36458;DHT22;22480;50.546;12.292;2024-02-15T14:33:46;13.60;99.90
36458;DHT22;22480;50.546;12.292;2024-02-15T14:36:13;13.70;99.90
36458;DHT22;22480;50.546;12.292;2024-02-15T14:38:39;13.90;99.90
36458;DHT22;22480;50.546;12.292;2024-02-15T14:41:05;13.90;99.90
36458;DHT22;22480;50.546;12.292;2024-02-15T14:43:31;13.90;99.90
36458;DHT22;22480;50.546;12.292;2024-02-15T14:45:59;14.10;99.90
36458;DHT22;22480;50.546;12.292;2024-02-15T14:48:27;14.20;99.90
36458;DHT22;22480;50.546;12.292;2024-02-15T14:50:53;14.60;99.90
36458;DHT22;22480;50.546;12.292;2024-02-15T14:53:19;14.50;99.90
36458;DHT22;22480;50.546;12.292;2024-02-15T14:55:45;14.10;99.90
36458;DHT22;22480;50.546;12.292;2024-02-15T14:58:14;13.80;99.90
36458;DHT22;22480;50.546;12.292;2024-02-15T15:00:42;13.50;99.90
36458;DHT22;22480;50.546;12.292;2024-02-15T15:03:10;13.30;99.90
36458;DHT22;22480;50.546;12.292;2024-02-15T15:05:38;13.20;99.90
36458;DHT22;22480;50.546;12.292;2024-02-15T15:08:23;13.00;99.90
36458;DHT22;22480;50.546;12.292;2024-02-15T15:11:07;12.80;99.90
36458;DHT22;22480;50.546;12.292;2024-02-15T15:13:52;12.70;99.90
36458;DHT22;22480;50.546;12.292;2024-02-15T15:16:18;12.80;99.90
36458;DHT22;22480;50.546;12.292;2024-02-15T15:18:49;12.90;99.90
36458;DHT22;22480;50.546;12.292;2024-02-15T15:21:18;13.20;99.90
36458;DHT22;22480;50.546;12.292;2024-02-15T15:23:44;13.20;99.90
36458;DHT22;22480;50.546;12.292;2024-02-15T15:26:11;13.30;99.90
36458;DHT22;22480;50.546;12.292;2024-02-15T15:28:37;13.40;99.90
36458;DHT22;22480;50.546;12.292;2024-02-15T15:31:04;13.30;99.90
36458;DHT22;22480;50.546;12.292;2024-02-15T15:33:30;13.40;99.90
36458;DHT22;22480;50.546;12.292;2024-02-15T15:35:59;13.40;99.90
36458;DHT22;22480;50.546;12.292;2024-02-15T15:38:25;13.30;99.90
36458;DHT22;22480;50.546;12.292;2024-02-15T15:40:54;13.00;99.90
36458;DHT22;22480;50.546;12.292;2024-02-15T15:43:20;12.70;99.90
36458;DHT22;22480;50.546;12.292;2024-02-15T15:45:46;12.30;99.90